createdAt,value
2023-02-08T00:01:18.257Z,102221.41
2023-02-08T00:03:46.459Z,102221.53
2023-02-08T00:06:15.428Z,102223.66
2023-02-08T00:08:44.297Z,102227.66
2023-02-08T00:11:12.634Z,102228.13
2023-02-08T00:13:42.263Z,102226.69
2023-02-08T00:16:12.461Z,102235.03
2023-02-08T00:18:42.164Z,102229.41
2023-02-08T00:21:11.857Z,102233.38
2023-02-08T00:23:40.579Z,102231.28
2023-02-08T00:26:09.194Z,102225.66
2023-02-08T00:28:37.879Z,102233.97
2023-02-08T00:31:06.960Z,102236.13
2023-02-08T00:33:35.306Z,102234.97
2023-02-08T00:36:09.056Z,102236.72
2023-02-08T00:38:37.719Z,102237.31
2023-02-08T00:41:06.183Z,102230.09
2023-02-08T00:43:34.596Z,102232.22
2023-02-08T00:46:02.808Z,102240.81
2023-02-08T00:48:31.781Z,102244.31
2023-02-08T00:51:02.332Z,102237.47
2023-02-08T00:53:32.678Z,102240.25
2023-02-08T00:56:00.755Z,102240.59
2023-02-08T00:58:28.867Z,102236.75
2023-02-08T01:00:57.154Z,102235.16
2023-02-08T01:03:26.301Z,102244.16
2023-02-08T01:05:55.120Z,102238.56
2023-02-08T01:08:23.258Z,102231.06
2023-02-08T01:10:53.253Z,102232.25
2023-02-08T01:13:21.395Z,102229.84
2023-02-08T01:15:49.507Z,102228.34
2023-02-08T01:18:17.685Z,102214.25
2023-02-08T01:20:45.801Z,102225.13
2023-02-08T01:23:13.933Z,102221.19
2023-02-08T01:25:42.650Z,102222.88
2023-02-08T01:28:12.195Z,102223.47
2023-02-08T01:30:40.633Z,102221.66
2023-02-08T01:33:08.850Z,102225.94
2023-02-08T01:35:36.947Z,102239.00
2023-02-08T01:38:05.084Z,102235.16
2023-02-08T01:40:33.240Z,102238.00
2023-02-08T01:43:01.324Z,102238.25
2023-02-08T01:45:32.441Z,102237.44
2023-02-08T01:48:06.581Z,102233.38
2023-02-08T01:50:42.412Z,102237.38
2023-02-08T01:53:10.938Z,102230.53
2023-02-08T01:55:44.462Z,102235.03
2023-02-08T01:58:14.107Z,102238.91
2023-02-08T02:00:43.852Z,102240.88
2023-02-08T02:03:12.243Z,102238.50
2023-02-08T02:05:43.565Z,102236.25
2023-02-08T02:08:13.041Z,102223.09
2023-02-08T02:10:43.274Z,102235.56
2023-02-08T02:13:14.081Z,102228.91
2023-02-08T02:15:44.599Z,102230.72
2023-02-08T02:18:17.199Z,102229.16
2023-02-08T02:21:00.221Z,102230.91
2023-02-08T02:23:48.477Z,102229.16
2023-02-08T02:26:49.135Z,102224.91
2023-02-08T02:29:47.343Z,102226.63
2023-02-08T02:32:38.176Z,102213.69
2023-02-08T02:35:14.217Z,102202.47
2023-02-08T02:37:56.440Z,102203.31
2023-02-08T02:40:34.867Z,102217.22
2023-02-08T02:43:28.435Z,102210.25
2023-02-08T02:46:04.349Z,102224.06
2023-02-08T02:48:41.465Z,102222.41
2023-02-08T02:51:14.313Z,102227.63
2023-02-08T02:53:50.050Z,102232.75
2023-02-08T02:56:23.247Z,102234.59
2023-02-08T02:58:53.627Z,102236.31
2023-02-08T03:01:27.026Z,102234.72
2023-02-08T03:03:57.157Z,102243.50
2023-02-08T03:06:37.820Z,102249.50
2023-02-08T03:09:28.030Z,102251.28
2023-02-08T03:12:03.923Z,102251.31
2023-02-08T03:14:41.174Z,102259.31
2023-02-08T03:17:26.713Z,102255.75
2023-02-08T03:20:05.436Z,102261.03
2023-02-08T03:22:44.428Z,102260.88
2023-02-08T03:25:18.989Z,102259.19
2023-02-08T03:28:01.092Z,102262.72
2023-02-08T03:30:35.483Z,102263.47
2023-02-08T03:33:09.355Z,102264.44
2023-02-08T03:35:45.536Z,102259.13
2023-02-08T03:38:20.697Z,102260.94
2023-02-08T03:40:53.964Z,102262.78
2023-02-08T03:43:27.272Z,102262.72
2023-02-08T03:46:01.093Z,102264.63
2023-02-08T03:48:31.292Z,102280.16
2023-02-08T03:51:04.299Z,102277.63
2023-02-08T03:53:38.397Z,102280.28
2023-02-08T03:56:12.236Z,102278.59
2023-02-08T03:58:43.121Z,102266.47
2023-02-08T04:01:17.916Z,102275.09
2023-02-08T04:03:50.233Z,102271.66
2023-02-08T04:06:19.894Z,102270.00
2023-02-08T04:08:48.149Z,102271.75
2023-02-08T04:11:16.352Z,102270.00
2023-02-08T04:13:44.581Z,102269.13
2023-02-08T04:16:14.145Z,102259.56
2023-02-08T04:18:42.316Z,102276.28
2023-02-08T04:21:10.422Z,102284.97
2023-02-08T04:23:39.938Z,102286.72
2023-02-08T04:26:09.630Z,102284.13
2023-02-08T04:28:37.803Z,102275.47
2023-02-08T04:31:06.235Z,102276.38
2023-02-08T04:33:34.500Z,102272.03
2023-02-08T04:36:02.617Z,102271.16
2023-02-08T04:38:30.791Z,102271.19
2023-02-08T04:41:00.378Z,102276.38
2023-02-08T04:43:28.672Z,102268.59
2023-02-08T04:45:56.817Z,102267.72
2023-02-08T04:48:24.943Z,102272.03
2023-02-08T04:50:56.548Z,102272.97
2023-02-08T04:53:25.268Z,102267.66
2023-02-08T04:55:53.452Z,102277.09
2023-02-08T04:58:23.188Z,102277.22
2023-02-08T05:00:51.329Z,102268.53
2023-02-08T05:03:21.120Z,102276.28
2023-02-08T05:05:58.164Z,102268.44
2023-02-08T05:08:26.285Z,102274.47
2023-02-08T05:10:54.434Z,102283.84
2023-02-08T05:13:23.991Z,102289.03
2023-02-08T05:15:52.163Z,102286.41
2023-02-08T05:18:20.435Z,102290.69
2023-02-08T05:20:56.106Z,102291.22
2023-02-08T05:23:24.237Z,102299.97
2023-02-08T05:25:52.488Z,102298.13
2023-02-08T05:28:21.228Z,102305.13
2023-02-08T05:30:50.944Z,102300.78
2023-02-08T05:33:19.755Z,102303.28
2023-02-08T05:35:47.913Z,102302.22
2023-02-08T05:38:16.100Z,102295.25
2023-02-08T05:40:44.221Z,102303.72
2023-02-08T05:43:12.345Z,102303.69
2023-02-08T05:45:40.473Z,102307.13
2023-02-08T05:48:10.018Z,102301.09
2023-02-08T05:50:38.307Z,102301.84
2023-02-08T05:53:06.499Z,102303.28
2023-02-08T05:55:34.670Z,102294.56
2023-02-08T05:58:02.800Z,102301.44
2023-02-08T06:00:31.022Z,102299.53
2023-02-08T06:02:59.607Z,102316.75
2023-02-08T06:05:29.234Z,102312.47
2023-02-08T06:07:57.389Z,102321.00
2023-02-08T06:10:25.534Z,102327.09
2023-02-08T06:12:53.652Z,102320.94
2023-02-08T06:15:21.834Z,102333.22
2023-02-08T06:17:50.003Z,102338.59
2023-02-08T06:20:18.608Z,102340.34
2023-02-08T06:22:48.459Z,102343.91
2023-02-08T06:25:16.828Z,102338.78
2023-02-08T06:27:44.993Z,102344.03
2023-02-08T06:30:13.667Z,102338.91
2023-02-08T06:32:41.926Z,102341.53
2023-02-08T06:35:10.825Z,102336.44
2023-02-08T06:37:39.004Z,102341.84
2023-02-08T06:40:10.586Z,102332.41
2023-02-08T06:42:38.982Z,102338.84
2023-02-08T06:45:11.002Z,102345.88
2023-02-08T06:47:40.240Z,102346.91
2023-02-08T06:50:08.727Z,102350.59
2023-02-08T06:52:37.161Z,102347.41
2023-02-08T06:55:06.043Z,102347.59
2023-02-08T06:57:35.566Z,102358.34
2023-02-08T07:00:04.010Z,102367.38
2023-02-08T07:02:32.334Z,102364.19
2023-02-08T07:05:00.605Z,102363.53
2023-02-08T07:07:29.041Z,102367.13
2023-02-08T07:09:57.259Z,102362.16
2023-02-08T07:12:25.403Z,102370.94
2023-02-08T07:14:54.926Z,102366.00
2023-02-08T07:17:23.380Z,102366.97
2023-02-08T07:19:52.175Z,102369.69
2023-02-08T07:22:20.334Z,102378.38
2023-02-08T07:24:48.704Z,102376.72
2023-02-08T07:27:16.997Z,102374.97
2023-02-08T07:29:46.664Z,102382.53
2023-02-08T07:32:16.177Z,102380.78
2023-02-08T07:34:44.985Z,102400.94
2023-02-08T07:37:13.092Z,102396.63
2023-02-08T07:39:41.227Z,102391.78
2023-02-08T07:42:10.173Z,102394.63
2023-02-08T07:44:38.987Z,102393.09
2023-02-08T07:47:07.926Z,102405.13
2023-02-08T07:49:37.550Z,102400.88
2023-02-08T07:52:06.047Z,102396.69
2023-02-08T07:54:34.157Z,102391.59
2023-02-08T07:57:03.710Z,102391.00
2023-02-08T07:59:31.982Z,102395.50
2023-02-08T08:02:00.227Z,102398.13
2023-02-08T08:04:28.496Z,102405.16
2023-02-08T08:06:58.121Z,102409.16
2023-02-08T08:09:26.718Z,102405.97
2023-02-08T08:11:54.906Z,102419.75
2023-02-08T08:14:23.203Z,102414.84
2023-02-08T08:16:51.347Z,102431.44
2023-02-08T08:19:19.502Z,102415.63
2023-02-08T08:21:47.605Z,102420.25
2023-02-08T08:24:17.236Z,102425.22
2023-02-08T08:26:45.382Z,102434.94
2023-02-08T08:29:13.509Z,102437.50
2023-02-08T08:31:42.848Z,102433.38
2023-02-08T08:34:11.040Z,102424.94
2023-02-08T08:36:39.170Z,102425.91
2023-02-08T08:39:07.345Z,102434.84
2023-02-08T08:41:37.339Z,102435.06
2023-02-08T08:44:05.769Z,102436.03
2023-02-08T08:46:34.048Z,102430.00
2023-02-08T08:49:02.288Z,102429.13
2023-02-08T08:51:31.967Z,102438.06
2023-02-08T08:54:00.096Z,102436.63
2023-02-08T08:56:28.296Z,102428.59
2023-02-08T08:58:57.917Z,102440.09
2023-02-08T09:01:26.057Z,102432.22
2023-02-08T09:03:54.204Z,102451.16
2023-02-08T09:06:22.410Z,102439.19
2023-02-08T09:08:51.835Z,102448.00
2023-02-08T09:11:20.347Z,102449.97
2023-02-08T09:13:52.956Z,102452.97
2023-02-08T09:16:24.128Z,102462.84
2023-02-08T09:18:52.479Z,102466.50
2023-02-08T09:21:22.723Z,102469.88
2023-02-08T09:23:50.811Z,102475.94
2023-02-08T09:26:21.366Z,102476.28
2023-02-08T09:28:49.764Z,102475.06
2023-02-08T09:31:21.261Z,102471.31
2023-02-08T09:33:51.954Z,102478.59
2023-02-08T09:36:20.848Z,102475.03
2023-02-08T09:38:49.916Z,102473.66
2023-02-08T09:41:32.114Z,102471.09
2023-02-08T09:44:16.616Z,102477.53
2023-02-08T09:46:52.268Z,102477.53
2023-02-08T09:49:27.654Z,102468.19
2023-02-08T09:51:59.829Z,102475.97
2023-02-08T09:54:33.275Z,102472.88
2023-02-08T09:57:03.588Z,102466.63
2023-02-08T09:59:35.000Z,102484.31
2023-02-08T10:02:15.303Z,102471.94
2023-02-08T10:04:56.944Z,102466.81
2023-02-08T10:07:26.901Z,102464.44
2023-02-08T10:09:57.807Z,102469.03
2023-02-08T10:12:36.842Z,102466.78
2023-02-08T10:15:15.630Z,102460.66
2023-02-08T10:17:58.214Z,102468.66
2023-02-08T10:20:38.487Z,102471.16
2023-02-08T10:23:22.556Z,102472.09
2023-02-08T10:26:13.598Z,102462.47
2023-02-08T10:29:23.275Z,102468.66
2023-02-08T10:32:23.908Z,102471.94
2023-02-08T10:34:55.848Z,102463.13
2023-02-08T10:37:30.317Z,102464.78
2023-02-08T10:40:04.451Z,102472.50
2023-02-08T10:42:34.190Z,102457.81
2023-02-08T10:45:23.890Z,102467.75
2023-02-08T10:47:55.695Z,102463.47
2023-02-08T10:50:31.550Z,102462.38
2023-02-08T10:53:01.294Z,102464.00
2023-02-08T10:55:33.130Z,102456.31
2023-02-08T10:58:03.825Z,102462.00
2023-02-08T11:00:34.710Z,102451.50
2023-02-08T11:03:14.269Z,102451.84
2023-02-08T11:05:42.977Z,102455.44
2023-02-08T11:08:15.696Z,102448.56
2023-02-08T11:10:47.770Z,102447.50
2023-02-08T11:13:21.704Z,102457.78
2023-02-08T11:15:53.036Z,102457.13
2023-02-08T11:18:24.917Z,102454.88
2023-02-08T11:20:56.374Z,102467.16
2023-02-08T11:23:29.810Z,102465.06
2023-02-08T11:26:20.177Z,102465.84
2023-02-08T11:29:01.951Z,102456.81
2023-02-08T11:31:30.928Z,102451.91
2023-02-08T11:34:04.705Z,102452.09
2023-02-08T11:36:34.539Z,102448.66
2023-02-08T11:39:07.903Z,102440.09
2023-02-08T11:41:37.786Z,102446.38
2023-02-08T11:44:08.206Z,102440.88
2023-02-08T11:46:39.640Z,102445.28
2023-02-08T11:49:07.798Z,102441.66
2023-02-08T11:51:39.090Z,102437.22
2023-02-08T11:54:41.344Z,102439.13
2023-02-08T11:57:16.884Z,102435.31
2023-02-08T11:59:45.132Z,102434.66
2023-02-08T12:02:30.604Z,102427.00
2023-02-08T12:04:59.926Z,102434.78
2023-02-08T12:07:39.067Z,102434.84
2023-02-08T12:10:22.676Z,102428.84
2023-02-08T12:13:10.414Z,102434.47
2023-02-08T12:15:58.249Z,102437.09
2023-02-08T12:18:46.041Z,102437.25
2023-02-08T12:21:19.229Z,102428.06
2023-02-08T12:23:53.422Z,102428.16
2023-02-08T12:26:49.410Z,102430.00
2023-02-08T12:29:45.742Z,102437.50
2023-02-08T12:32:45.929Z,102420.41
2023-02-08T12:35:45.730Z,102430.78
2023-02-08T12:38:52.442Z,102417.69
2023-02-08T12:41:28.786Z,102404.28
2023-02-08T12:44:08.827Z,102418.19
2023-02-08T12:47:04.233Z,102404.53
2023-02-08T12:49:58.228Z,102419.19
2023-02-08T12:52:37.504Z,102408.00
2023-02-08T12:55:14.934Z,102401.78
2023-02-08T12:57:46.700Z,102401.03
2023-02-08T13:00:23.970Z,102406.34
2023-02-08T13:03:00.665Z,102405.50
2023-02-08T13:05:34.276Z,102400.06
2023-02-08T13:08:08.930Z,102398.00
2023-02-08T13:10:40.746Z,102388.66
2023-02-08T13:13:15.898Z,102411.22
2023-02-08T13:15:50.515Z,102409.44
2023-02-08T13:18:22.023Z,102411.03
2023-02-08T13:20:53.740Z,102410.34
2023-02-08T13:23:27.206Z,102401.59
2023-02-08T13:25:58.239Z,102415.63
2023-02-08T13:28:27.804Z,102410.34
2023-02-08T13:31:02.550Z,102421.59
2023-02-08T13:33:55.638Z,102415.38
2023-02-08T13:36:32.410Z,102423.00
2023-02-08T13:39:02.566Z,102403.91
2023-02-08T13:41:31.948Z,102410.88
2023-02-08T13:44:04.593Z,102410.88
2023-02-08T13:46:40.185Z,102409.78
2023-02-08T13:49:08.352Z,102416.66
2023-02-08T13:52:03.592Z,102411.16
2023-02-08T13:54:31.812Z,102411.94
2023-02-08T13:57:00.112Z,102421.31
2023-02-08T13:59:37.097Z,102413.44
2023-02-08T14:02:29.097Z,102412.50
2023-02-08T14:05:44.870Z,102412.44
2023-02-08T14:08:23.039Z,102420.00
2023-02-08T14:11:07.958Z,102418.97
2023-02-08T14:13:40.209Z,102419.78
2023-02-08T14:16:28.452Z,102414.50
2023-02-08T14:18:59.418Z,102404.16
2023-02-08T14:21:40.706Z,102407.75
2023-02-08T14:24:20.854Z,102412.97
2023-02-08T14:26:49.793Z,102414.66
2023-02-08T14:29:24.129Z,102409.41
2023-02-08T14:31:53.628Z,102408.44
2023-02-08T14:34:30.449Z,102413.56
2023-02-08T14:37:06.204Z,102410.88
2023-02-08T14:39:37.367Z,102414.13
2023-02-08T14:42:08.964Z,102415.81
2023-02-08T14:45:05.078Z,102417.75
2023-02-08T14:48:08.909Z,102417.66
2023-02-08T14:50:53.294Z,102404.50
2023-02-08T14:53:27.959Z,102413.91
2023-02-08T14:56:00.774Z,102409.50
2023-02-08T14:58:30.824Z,102408.56
2023-02-08T15:01:03.289Z,102416.22
2023-02-08T15:03:34.018Z,102417.84
2023-02-08T15:06:40.288Z,102419.41
2023-02-08T15:09:17.679Z,102401.97
2023-02-08T15:11:51.410Z,102415.00
2023-02-08T15:14:22.220Z,102416.63
2023-02-08T15:16:50.876Z,102410.50
2023-02-08T15:19:25.700Z,102419.09
2023-02-08T15:21:55.516Z,102428.53
2023-02-08T15:24:29.186Z,102414.69
2023-02-08T15:26:58.830Z,102421.44
2023-02-08T15:29:42.888Z,102421.44
2023-02-08T15:32:16.485Z,102428.34
2023-02-08T15:34:45.683Z,102415.25
2023-02-08T15:37:18.631Z,102432.59
2023-02-08T15:39:50.363Z,102427.97
2023-02-08T15:42:19.698Z,102426.41
2023-02-08T15:44:48.428Z,102431.28
2023-02-08T15:47:19.468Z,102430.25
2023-02-08T15:49:50.935Z,102425.78
2023-02-08T15:52:23.754Z,102429.94
2023-02-08T15:54:52.262Z,102439.22
2023-02-08T15:57:37.235Z,102432.41
2023-02-08T16:00:09.745Z,102435.88
2023-02-08T16:02:38.398Z,102437.63
2023-02-08T16:05:19.410Z,102446.25
2023-02-08T16:07:52.170Z,102441.78
2023-02-08T16:10:25.148Z,102446.88
2023-02-08T16:12:56.073Z,102442.13
2023-02-08T16:15:45.254Z,102447.50
2023-02-08T16:18:39.406Z,102449.25
2023-02-08T16:21:29.516Z,102445.66
2023-02-08T16:24:01.254Z,102443.63
2023-02-08T16:26:33.078Z,102450.56
2023-02-08T16:29:03.705Z,102451.09
2023-02-08T16:31:35.513Z,102457.69
2023-02-08T16:34:06.651Z,102461.00
2023-02-08T16:36:37.996Z,102472.03
2023-02-08T16:39:37.072Z,102465.91
2023-02-08T16:42:15.947Z,102473.56
2023-02-08T16:45:13.055Z,102474.34
2023-02-08T16:47:43.614Z,102480.13
2023-02-08T16:50:14.528Z,102473.06
2023-02-08T16:52:43.087Z,102485.09
2023-02-08T16:55:18.545Z,102489.31
2023-02-08T16:57:49.298Z,102481.50
2023-02-08T17:00:22.625Z,102491.63
2023-02-08T17:02:53.214Z,102500.25
2023-02-08T17:05:23.084Z,102499.91
2023-02-08T17:07:52.260Z,102497.84
2023-02-08T17:10:29.028Z,102499.34
2023-02-08T17:13:13.411Z,102503.63
2023-02-08T17:15:47.790Z,102500.22
2023-02-08T17:18:16.407Z,102485.81
2023-02-08T17:20:45.627Z,102491.84
2023-02-08T17:23:15.909Z,102493.44
2023-02-08T17:25:46.544Z,102494.97
2023-02-08T17:28:19.398Z,102487.78
2023-02-08T17:30:48.763Z,102492.81
2023-02-08T17:33:19.548Z,102501.59
2023-02-08T17:35:50.419Z,102503.19
2023-02-08T17:38:20.793Z,102508.59
2023-02-08T17:40:53.945Z,102504.56
2023-02-08T17:43:24.542Z,102501.28
2023-02-08T17:45:53.175Z,102506.19
2023-02-08T17:48:24.042Z,102501.47
2023-02-08T17:50:53.731Z,102512.66
2023-02-08T17:53:24.526Z,102516.16
2023-02-08T17:55:55.000Z,102512.75
2023-02-08T17:58:23.502Z,102516.88
2023-02-08T18:00:52.785Z,102510.66
2023-02-08T18:03:24.000Z,102507.22
2023-02-08T18:05:58.141Z,102512.47
2023-02-08T18:08:27.638Z,102507.06
2023-02-08T18:10:58.052Z,102512.28
2023-02-08T18:13:27.348Z,102508.56
2023-02-08T18:15:55.868Z,102506.72
2023-02-08T18:18:25.044Z,102507.22
2023-02-08T18:20:54.274Z,102500.91
2023-02-08T18:23:23.671Z,102508.88
2023-02-08T18:25:53.299Z,102507.00
2023-02-08T18:28:24.413Z,102508.13
2023-02-08T18:30:54.258Z,102514.31
2023-02-08T18:33:23.817Z,102507.72
2023-02-08T18:35:53.080Z,102505.94
2023-02-08T18:38:22.507Z,102511.78
2023-02-08T18:40:52.008Z,102517.41
2023-02-08T18:43:26.413Z,102517.94
2023-02-08T18:46:03.617Z,102516.38
2023-02-08T18:48:33.256Z,102519.06
2023-02-08T18:51:03.714Z,102525.59
2023-02-08T18:53:36.024Z,102520.06
2023-02-08T18:56:09.520Z,102523.09
2023-02-08T18:58:40.711Z,102523.16
2023-02-08T19:01:13.044Z,102531.16
2023-02-08T19:03:42.390Z,102526.59
2023-02-08T19:06:17.822Z,102527.84
2023-02-08T19:08:52.192Z,102520.22
2023-02-08T19:11:23.867Z,102524.31
2023-02-08T19:13:56.724Z,102530.81
2023-02-08T19:16:29.707Z,102528.94
2023-02-08T19:19:00.959Z,102526.69
2023-02-08T19:21:31.553Z,102519.25
2023-02-08T19:24:02.767Z,102523.53
2023-02-08T19:26:34.780Z,102525.53
2023-02-08T19:29:09.076Z,102530.69
2023-02-08T19:31:40.414Z,102528.03
2023-02-08T19:34:14.936Z,102521.78
2023-02-08T19:36:46.621Z,102517.59
2023-02-08T19:39:18.306Z,102524.31
2023-02-08T19:41:50.817Z,102523.88
2023-02-08T19:44:23.311Z,102526.69
2023-02-08T19:46:54.510Z,102518.31
2023-02-08T19:49:26.671Z,102519.19
2023-02-08T19:52:02.696Z,102523.97
2023-02-08T19:54:33.138Z,102516.72
2023-02-08T19:57:02.148Z,102524.34
2023-02-08T19:59:35.210Z,102519.81
2023-02-08T20:02:07.040Z,102520.19
2023-02-08T20:04:37.224Z,102520.06
2023-02-08T20:07:07.463Z,102531.13
2023-02-08T20:09:38.186Z,102528.91
2023-02-08T20:12:12.184Z,102524.84
2023-02-08T20:14:44.077Z,102533.09
2023-02-08T20:17:14.975Z,102536.25
2023-02-08T20:19:44.356Z,102526.22
2023-02-08T20:22:13.640Z,102527.63
2023-02-08T20:24:43.318Z,102523.63
2023-02-08T20:27:13.408Z,102527.81
2023-02-08T20:29:44.471Z,102519.69
2023-02-08T20:32:14.021Z,102525.59
2023-02-08T20:34:53.910Z,102529.91
2023-02-08T20:37:27.771Z,102529.50
2023-02-08T20:39:57.154Z,102520.69
2023-02-08T20:42:26.897Z,102519.47
2023-02-08T20:44:58.787Z,102530.28
2023-02-08T20:47:30.046Z,102533.91
2023-02-08T20:50:10.394Z,102540.81
2023-02-08T20:52:47.883Z,102537.25
2023-02-08T20:55:17.408Z,102530.00
2023-02-08T20:57:46.244Z,102526.72
2023-02-08T21:00:17.980Z,102540.72
2023-02-08T21:02:47.148Z,102539.81
2023-02-08T21:05:17.900Z,102540.59
2023-02-08T21:07:47.433Z,102537.06
2023-02-08T21:10:16.113Z,102534.44
2023-02-08T21:12:44.814Z,102538.53
2023-02-08T21:15:13.946Z,102541.00
2023-02-08T21:17:46.191Z,102538.09
2023-02-08T21:20:15.317Z,102530.69
2023-02-08T21:22:43.720Z,102532.09
2023-02-08T21:25:12.811Z,102539.72
2023-02-08T21:27:41.370Z,102539.03
2023-02-08T21:30:10.832Z,102527.31
2023-02-08T21:32:41.819Z,102530.78
2023-02-08T21:35:11.836Z,102529.31
2023-02-08T21:37:40.132Z,102526.91
2023-02-08T21:40:08.820Z,102524.50
2023-02-08T21:42:37.577Z,102522.75
2023-02-08T21:45:08.597Z,102524.50
2023-02-08T21:47:37.842Z,102521.47
2023-02-08T21:50:23.789Z,102515.31
2023-02-08T21:53:10.863Z,102514.44
2023-02-08T21:55:40.351Z,102516.75
2023-02-08T21:58:08.476Z,102514.69
2023-02-08T22:00:36.660Z,102518.66
2023-02-08T22:03:04.872Z,102518.25
2023-02-08T22:05:50.918Z,102519.13
2023-02-08T22:08:20.460Z,102520.28
2023-02-08T22:10:57.878Z,102523.09
2023-02-08T22:13:26.712Z,102509.94
2023-02-08T22:15:54.943Z,102529.06
2023-02-08T22:18:24.226Z,102521.91
2023-02-08T22:20:52.750Z,102527.22
2023-02-08T22:23:23.275Z,102522.69
2023-02-08T22:25:51.437Z,102525.28
2023-02-08T22:28:19.665Z,102521.81
2023-02-08T22:30:49.378Z,102518.31
2023-02-08T22:33:18.171Z,102516.66
2023-02-08T22:35:46.361Z,102518.97
2023-02-08T22:38:14.501Z,102510.03
2023-02-08T22:40:44.457Z,102513.44
2023-02-08T22:43:12.893Z,102511.44
2023-02-08T22:45:42.392Z,102513.75
2023-02-08T22:48:10.977Z,102516.50
2023-02-08T22:50:39.692Z,102509.53
2023-02-08T22:53:07.818Z,102514.63
2023-02-08T22:55:35.957Z,102502.50
2023-02-08T22:58:05.684Z,102504.72
2023-02-08T23:00:33.904Z,102503.53
2023-02-08T23:03:02.081Z,102512.09
2023-02-08T23:05:30.226Z,102507.75
2023-02-08T23:07:58.351Z,102507.69
2023-02-08T23:10:26.464Z,102510.19
2023-02-08T23:12:54.605Z,102507.81
2023-02-08T23:15:24.244Z,102502.03
2023-02-08T23:17:52.407Z,102500.88
2023-02-08T23:20:20.668Z,102499.88
2023-02-08T23:22:48.826Z,102496.09
2023-02-08T23:25:17.049Z,102499.19
2023-02-08T23:27:45.395Z,102500.63
2023-02-08T23:30:14.067Z,102500.25
2023-02-08T23:32:44.026Z,102497.59
2023-02-08T23:35:12.358Z,102496.72
2023-02-08T23:37:40.624Z,102495.16
2023-02-08T23:40:09.884Z,102498.22
2023-02-08T23:42:38.081Z,102497.84
2023-02-08T23:45:06.928Z,102483.28
2023-02-08T23:47:35.550Z,102481.34
2023-02-08T23:50:05.472Z,102479.28
2023-02-08T23:52:34.939Z,102484.78
2023-02-08T23:55:03.160Z,102496.06
2023-02-08T23:57:34.811Z,102486.53
